createdAt,value
2023-01-22T00:00:47.894Z,12.87
2023-01-22T00:03:14.529Z,12.87
2023-01-22T00:05:41.161Z,12.88
2023-01-22T00:08:08.021Z,12.90
2023-01-22T00:10:34.668Z,12.90
2023-01-22T00:13:01.273Z,12.91
2023-01-22T00:15:27.940Z,12.90
2023-01-22T00:17:54.581Z,12.95
2023-01-22T00:20:21.227Z,12.94
2023-01-22T00:22:47.913Z,12.92
2023-01-22T00:25:14.785Z,12.88
2023-01-22T00:27:41.436Z,12.94
2023-01-22T00:30:08.305Z,12.92
2023-01-22T00:32:34.947Z,12.97
2023-01-22T00:35:01.566Z,12.98
2023-01-22T00:37:28.203Z,12.98
2023-01-22T00:39:54.841Z,13.00
2023-01-22T00:42:21.490Z,12.97
2023-01-22T00:44:48.122Z,12.94
2023-01-22T00:47:14.757Z,12.95
2023-01-22T00:49:41.400Z,12.98
2023-01-22T00:52:08.255Z,12.98
2023-01-22T00:54:34.888Z,12.97
2023-01-22T00:57:01.564Z,13.00
2023-01-22T00:59:28.227Z,13.00
2023-01-22T01:01:54.894Z,12.97
2023-01-22T01:04:21.560Z,13.02
2023-01-22T01:06:48.191Z,13.00
2023-01-22T01:09:14.831Z,13.02
2023-01-22T01:11:41.463Z,13.01
2023-01-22T01:14:08.100Z,13.01
2023-01-22T01:16:34.728Z,13.01
2023-01-22T01:19:01.401Z,13.00
2023-01-22T01:21:28.088Z,12.98
2023-01-22T01:23:54.945Z,12.98
2023-01-22T01:26:21.580Z,13.00
2023-01-22T01:28:48.232Z,12.97
2023-01-22T01:31:14.993Z,12.98
2023-01-22T01:33:41.711Z,12.95
2023-01-22T01:36:08.570Z,12.95
2023-01-22T01:38:35.225Z,12.97
2023-01-22T01:41:01.879Z,12.92
2023-01-22T01:43:28.520Z,12.95
2023-01-22T01:45:55.154Z,12.98
2023-01-22T01:48:21.836Z,12.97
2023-01-22T01:50:48.551Z,12.97
2023-01-22T01:53:15.233Z,12.94
2023-01-22T01:55:41.863Z,12.98
2023-01-22T01:58:08.492Z,12.95
2023-01-22T02:00:35.273Z,12.95
2023-01-22T02:03:02.023Z,12.94
2023-01-22T02:05:28.687Z,12.94
2023-01-22T02:07:55.313Z,12.92
2023-01-22T02:10:22.063Z,12.90
2023-01-22T02:12:48.784Z,12.90
2023-01-22T02:15:15.443Z,12.87
2023-01-22T02:17:42.096Z,12.90
2023-01-22T02:20:08.760Z,12.88
2023-01-22T02:22:35.430Z,12.88
2023-01-22T02:25:02.118Z,12.87
2023-01-22T02:27:28.786Z,12.83
2023-01-22T02:29:55.498Z,12.80
2023-01-22T02:32:22.180Z,12.79
2023-01-22T02:34:48.860Z,12.74
2023-01-22T02:37:15.560Z,12.79
2023-01-22T02:39:42.227Z,12.73
2023-01-22T02:42:08.904Z,12.70
2023-01-22T02:44:35.557Z,12.73
2023-01-22T02:47:02.905Z,12.70
2023-01-22T02:49:29.798Z,12.65
2023-01-22T02:51:56.453Z,12.67
2023-01-22T02:54:23.110Z,12.65
2023-01-22T02:56:49.992Z,12.67
2023-01-22T02:59:16.669Z,12.65
2023-01-22T03:01:43.344Z,12.64
2023-01-22T03:04:10.212Z,12.63
2023-01-22T03:06:36.888Z,12.59
2023-01-22T03:09:03.768Z,12.59
2023-01-22T03:11:30.418Z,12.57
2023-01-22T03:13:57.300Z,12.54
2023-01-22T03:16:23.977Z,12.50
2023-01-22T03:18:50.645Z,12.51
2023-01-22T03:21:17.315Z,12.50
2023-01-22T03:23:44.203Z,12.50
2023-01-22T03:26:10.859Z,12.49
2023-01-22T03:28:37.539Z,12.47
2023-01-22T03:31:04.231Z,12.49
2023-01-22T03:33:31.111Z,12.46
2023-01-22T03:35:57.765Z,12.44
2023-01-22T03:38:24.443Z,12.44
2023-01-22T03:40:51.128Z,12.39
2023-01-22T03:43:17.802Z,12.40
2023-01-22T03:45:44.506Z,12.40
2023-01-22T03:48:11.191Z,12.36
2023-01-22T03:50:37.855Z,12.33
2023-01-22T03:53:04.540Z,12.30
2023-01-22T03:55:31.421Z,12.29
2023-01-22T03:57:58.076Z,12.29
2023-01-22T04:00:24.749Z,12.28
2023-01-22T04:02:51.437Z,12.26
2023-01-22T04:05:18.127Z,12.22
2023-01-22T04:07:44.799Z,12.22
2023-01-22T04:10:11.684Z,12.20
2023-01-22T04:12:38.544Z,12.16
2023-01-22T04:15:05.194Z,12.20
2023-01-22T04:17:32.086Z,12.16
2023-01-22T04:19:58.776Z,12.15
2023-01-22T04:22:25.654Z,12.12
2023-01-22T04:24:52.300Z,12.09
2023-01-22T04:27:19.226Z,12.09
2023-01-22T04:29:45.903Z,12.05
2023-01-22T04:32:12.791Z,12.06
2023-01-22T04:34:40.261Z,12.06
2023-01-22T04:37:06.919Z,12.00
2023-01-22T04:39:34.205Z,12.00
2023-01-22T04:42:00.864Z,11.98
2023-01-22T04:44:27.540Z,11.99
2023-01-22T04:46:54.425Z,11.98
2023-01-22T04:49:21.314Z,11.98
2023-01-22T04:51:48.203Z,11.91
2023-01-22T04:54:15.316Z,11.91
2023-01-22T04:56:42.004Z,11.91
2023-01-22T04:59:08.686Z,11.86
2023-01-22T05:01:35.640Z,11.86
2023-01-22T05:04:02.335Z,11.83
2023-01-22T05:06:29.010Z,11.83
2023-01-22T05:08:55.657Z,11.91
2023-01-22T05:11:22.535Z,11.93
2023-01-22T05:13:49.196Z,11.93
2023-01-22T05:16:16.042Z,11.89
2023-01-22T05:18:42.722Z,11.95
2023-01-22T05:21:09.716Z,11.93
2023-01-22T05:23:36.402Z,11.85
2023-01-22T05:26:03.086Z,11.85
2023-01-22T05:28:29.748Z,11.86
2023-01-22T05:30:56.485Z,11.85
2023-01-22T05:33:23.199Z,11.81
2023-01-22T05:35:50.089Z,11.75
2023-01-22T05:38:16.756Z,11.75
2023-01-22T05:40:43.399Z,11.68
2023-01-22T05:43:10.284Z,11.74
2023-01-22T05:45:36.962Z,11.78
2023-01-22T05:48:03.847Z,11.79
2023-01-22T05:50:30.502Z,11.67
2023-01-22T05:52:57.388Z,11.61
2023-01-22T05:55:24.037Z,11.58
2023-01-22T05:57:50.908Z,11.57
2023-01-22T06:00:17.797Z,11.57
2023-01-22T06:02:44.824Z,11.55
2023-01-22T06:05:11.588Z,11.54
2023-01-22T06:07:38.302Z,11.51
2023-01-22T06:10:04.980Z,11.51
2023-01-22T06:12:31.664Z,11.45
2023-01-22T06:14:58.540Z,11.47
2023-01-22T06:17:25.212Z,11.42
2023-01-22T06:19:51.895Z,11.38
2023-01-22T06:22:18.566Z,11.38
2023-01-22T06:24:45.232Z,11.34
2023-01-22T06:27:11.881Z,11.35
2023-01-22T06:29:40.142Z,11.31
2023-01-22T06:32:06.966Z,11.28
2023-01-22T06:34:33.610Z,11.27
2023-01-22T06:37:00.287Z,11.27
2023-01-22T06:39:26.925Z,11.26
2023-01-22T06:41:53.595Z,11.21
2023-01-22T06:44:20.272Z,11.23
2023-01-22T06:46:47.044Z,11.18
2023-01-22T06:49:13.772Z,11.18
2023-01-22T06:51:40.537Z,11.18
2023-01-22T06:54:07.218Z,11.14
2023-01-22T06:56:34.112Z,11.11
2023-01-22T06:59:00.761Z,11.10
2023-01-22T07:01:27.422Z,11.07
2023-01-22T07:03:54.154Z,11.06
2023-01-22T07:06:20.856Z,11.07
2023-01-22T07:08:47.578Z,11.04
2023-01-22T07:11:14.244Z,11.01
2023-01-22T07:13:40.918Z,11.00
2023-01-22T07:16:07.662Z,11.00
2023-01-22T07:18:34.367Z,10.99
2023-01-22T07:21:01.041Z,10.96
2023-01-22T07:23:27.764Z,10.96
2023-01-22T07:25:54.425Z,10.95
2023-01-22T07:28:21.106Z,11.00
2023-01-22T07:30:47.873Z,11.04
2023-01-22T07:33:14.546Z,11.01
2023-01-22T07:35:41.237Z,10.93
2023-01-22T07:38:07.928Z,10.89
2023-01-22T07:40:34.609Z,10.69
2023-01-22T07:43:01.301Z,10.80
2023-01-22T07:45:27.969Z,10.79
2023-01-22T07:47:54.654Z,10.84
2023-01-22T07:50:21.329Z,10.86
2023-01-22T07:52:48.003Z,10.83
2023-01-22T07:55:14.650Z,10.84
2023-01-22T07:57:41.306Z,10.83
2023-01-22T08:00:07.967Z,10.79
2023-01-22T08:02:34.620Z,10.84
2023-01-22T08:05:01.285Z,10.89
2023-01-22T08:07:27.953Z,10.83
2023-01-22T08:09:54.855Z,10.86
2023-01-22T08:12:21.530Z,10.96
2023-01-22T08:14:48.194Z,10.84
2023-01-22T08:17:14.856Z,10.80
2023-01-22T08:19:41.514Z,10.84
2023-01-22T08:22:08.182Z,10.77
2023-01-22T08:24:34.837Z,10.81
2023-01-22T08:27:01.542Z,10.72
2023-01-22T08:29:28.205Z,10.87
2023-01-22T08:31:54.970Z,10.86
2023-01-22T08:34:21.736Z,10.84
2023-01-22T08:36:48.628Z,10.87
2023-01-22T08:39:15.318Z,10.96
2023-01-22T08:41:41.994Z,10.93
2023-01-22T08:44:08.646Z,10.93
2023-01-22T08:46:35.317Z,10.92
2023-01-22T08:49:02.004Z,11.00
2023-01-22T08:51:28.693Z,11.04
2023-01-22T08:53:58.634Z,11.01
2023-01-22T08:56:25.322Z,8.00
2023-01-22T08:58:52.022Z,9.98
2023-01-22T09:01:18.731Z,8.76
2023-01-22T09:03:45.614Z,9.57
2023-01-22T09:06:12.330Z,10.46
2023-01-22T09:08:39.026Z,10.79
2023-01-22T09:11:05.704Z,10.90
2023-01-22T09:13:32.376Z,10.96
2023-01-22T09:15:59.060Z,11.00
2023-01-22T09:18:25.710Z,11.04
2023-01-22T09:20:52.590Z,11.04
2023-01-22T09:23:19.481Z,11.10
2023-01-22T09:25:46.177Z,11.17
2023-01-22T09:28:12.865Z,11.24
2023-01-22T09:30:39.579Z,11.26
2023-01-22T09:33:06.276Z,11.31
2023-01-22T09:35:32.965Z,11.38
2023-01-22T09:37:59.669Z,11.40
2023-01-22T09:40:26.350Z,11.37
2023-01-22T09:42:53.035Z,11.41
2023-01-22T09:45:19.855Z,11.45
2023-01-22T09:47:46.526Z,11.50
2023-01-22T09:50:13.239Z,11.57
2023-01-22T09:52:39.990Z,11.57
2023-01-22T09:55:06.675Z,11.58
2023-01-22T09:57:33.367Z,11.64
2023-01-22T10:00:00.041Z,11.71
2023-01-22T10:02:26.738Z,11.69
2023-01-22T10:04:53.440Z,11.67
2023-01-22T10:07:20.092Z,11.69
2023-01-22T10:09:46.755Z,11.72
2023-01-22T10:12:13.399Z,11.79
2023-01-22T10:14:40.109Z,11.78
2023-01-22T10:17:06.775Z,11.85
2023-01-22T10:19:33.438Z,11.86
2023-01-22T10:22:00.132Z,11.95
2023-01-22T10:24:26.807Z,11.99
2023-01-22T10:26:53.503Z,11.92
2023-01-22T10:29:20.208Z,11.96
2023-01-22T10:31:46.985Z,12.03
2023-01-22T10:34:13.764Z,11.99
2023-01-22T10:36:40.622Z,11.99
2023-01-22T10:39:07.301Z,12.00
2023-01-22T10:41:33.993Z,12.00
2023-01-22T10:44:00.680Z,12.05
2023-01-22T10:46:27.406Z,12.03
2023-01-22T10:48:54.091Z,12.00
2023-01-22T10:51:20.823Z,12.02
2023-01-22T10:53:47.539Z,12.00
2023-01-22T10:56:14.221Z,12.85
2023-01-22T10:58:41.382Z,12.98
2023-01-22T11:01:08.280Z,12.57
2023-01-22T11:03:34.977Z,12.37
2023-01-22T11:06:01.631Z,12.41
2023-01-22T11:08:28.291Z,12.37
2023-01-22T11:10:54.966Z,12.43
2023-01-22T11:13:21.675Z,12.50
2023-01-22T11:15:48.406Z,12.41
2023-01-22T11:18:15.104Z,12.44
2023-01-22T11:20:41.799Z,12.44
2023-01-22T11:23:08.496Z,12.50
2023-01-22T11:25:35.179Z,12.53
2023-01-22T11:28:01.847Z,12.54
2023-01-22T11:30:28.928Z,12.49
2023-01-22T11:32:55.834Z,12.51
2023-01-22T11:35:22.498Z,12.57
2023-01-22T11:37:49.168Z,12.56
2023-01-22T11:40:15.893Z,12.57
2023-01-22T11:42:42.623Z,12.61
2023-01-22T11:45:09.288Z,12.59
2023-01-22T11:47:35.991Z,12.61
2023-01-22T11:50:02.665Z,12.61
2023-01-22T11:52:29.375Z,12.67
2023-01-22T11:54:56.064Z,12.68
2023-01-22T11:57:22.720Z,13.77
2023-01-22T11:59:49.394Z,13.35
2023-01-22T12:02:16.062Z,13.08
2023-01-22T12:04:42.735Z,13.12
2023-01-22T12:07:09.413Z,13.14
2023-01-22T12:09:36.101Z,13.05
2023-01-22T12:12:02.767Z,13.19
2023-01-22T12:14:29.423Z,13.25
2023-01-22T12:16:56.075Z,13.21
2023-01-22T12:19:22.750Z,13.21
2023-01-22T12:21:49.421Z,13.22
2023-01-22T12:24:16.286Z,13.22
2023-01-22T12:26:42.930Z,13.23
2023-01-22T12:29:09.603Z,13.23
2023-01-22T12:31:36.444Z,13.25
2023-01-22T12:34:03.154Z,13.31
2023-01-22T12:36:29.831Z,13.29
2023-01-22T12:38:56.493Z,13.36
2023-01-22T12:41:23.167Z,12.54
2023-01-22T12:43:49.823Z,13.53
2023-01-22T12:46:16.562Z,13.55
2023-01-22T12:48:43.260Z,13.49
2023-01-22T12:51:09.951Z,13.48
2023-01-22T12:53:36.660Z,13.55
2023-01-22T12:56:03.545Z,13.65
2023-01-22T12:58:30.269Z,13.69
2023-01-22T13:00:57.004Z,13.69
2023-01-22T13:03:30.925Z,13.77
2023-01-22T13:05:58.154Z,13.84
2023-01-22T13:08:24.821Z,14.12
2023-01-22T13:10:51.532Z,13.99
2023-01-22T13:13:18.189Z,13.96
2023-01-22T13:15:44.850Z,13.96
2023-01-22T13:18:11.501Z,13.86
2023-01-22T13:20:38.180Z,13.80
2023-01-22T13:23:04.852Z,13.63
2023-01-22T13:25:31.527Z,13.73
2023-01-22T13:27:58.206Z,13.82
2023-01-22T13:30:24.908Z,13.89
2023-01-22T13:32:51.605Z,13.86
2023-01-22T13:35:19.875Z,13.83
2023-01-22T13:37:46.752Z,14.14
2023-01-22T13:40:13.449Z,13.97
2023-01-22T13:42:40.124Z,13.86
2023-01-22T13:45:06.790Z,13.82
2023-01-22T13:47:33.689Z,13.82
2023-01-22T13:50:00.394Z,13.80
2023-01-22T13:52:27.081Z,13.82
2023-01-22T13:54:53.775Z,13.80
2023-01-22T13:57:20.443Z,13.82
2023-01-22T13:59:49.063Z,13.84
2023-01-22T14:02:16.380Z,13.84
2023-01-22T14:04:44.017Z,13.83
2023-01-22T14:07:10.684Z,13.84
2023-01-22T14:09:37.355Z,13.90
2023-01-22T14:12:04.026Z,13.89
2023-01-22T14:14:30.716Z,13.91
2023-01-22T14:16:57.398Z,13.89
2023-01-22T14:19:24.081Z,13.91
2023-01-22T14:21:50.748Z,13.91
2023-01-22T14:24:17.638Z,13.91
2023-01-22T14:26:44.318Z,13.97
2023-01-22T14:29:11.000Z,13.94
2023-01-22T14:31:37.934Z,13.94
2023-01-22T14:34:04.640Z,13.97
2023-01-22T14:36:31.285Z,13.99
2023-01-22T14:38:57.949Z,14.31
2023-01-22T14:41:24.858Z,14.85
2023-01-22T14:43:51.559Z,14.55
2023-01-22T14:46:18.259Z,14.34
2023-01-22T14:48:44.932Z,14.25
2023-01-22T14:51:11.670Z,14.69
2023-01-22T14:53:38.366Z,14.52
2023-01-22T14:56:05.044Z,14.28
2023-01-22T14:58:31.906Z,13.91
2023-01-22T15:00:58.622Z,14.00
2023-01-22T15:03:25.330Z,14.09
2023-01-22T15:05:51.999Z,14.13
2023-01-22T15:08:18.680Z,14.16
2023-01-22T15:10:45.364Z,14.17
2023-01-22T15:13:12.037Z,14.17
2023-01-22T15:15:38.720Z,14.20
2023-01-22T15:18:05.389Z,14.18
2023-01-22T15:20:32.074Z,14.21
2023-01-22T15:22:58.761Z,14.21
2023-01-22T15:25:25.433Z,14.25
2023-01-22T15:27:52.111Z,14.27
2023-01-22T15:30:19.142Z,14.28
2023-01-22T15:32:46.119Z,14.28
2023-01-22T15:35:12.797Z,14.31
2023-01-22T15:37:39.470Z,14.33
2023-01-22T15:40:06.388Z,14.35
2023-01-22T15:42:33.051Z,14.34
2023-01-22T15:44:59.715Z,14.38
2023-01-22T15:47:26.396Z,14.40
2023-01-22T15:49:53.279Z,14.41
2023-01-22T15:52:20.015Z,14.45
2023-01-22T15:54:46.666Z,14.48
2023-01-22T15:57:13.335Z,14.48
2023-01-22T15:59:40.121Z,14.51
2023-01-22T16:02:06.814Z,14.52
2023-01-22T16:04:33.522Z,14.57
2023-01-22T16:07:00.190Z,14.55
2023-01-22T16:09:26.867Z,14.57
2023-01-22T16:11:53.780Z,14.61
2023-01-22T16:14:20.454Z,14.61
2023-01-22T16:16:47.125Z,14.67
2023-01-22T16:19:13.788Z,14.67
2023-01-22T16:21:40.473Z,14.69
2023-01-22T16:24:07.434Z,14.71
2023-01-22T16:26:34.127Z,14.72
2023-01-22T16:29:00.805Z,14.74
2023-01-22T16:31:27.537Z,14.76
2023-01-22T16:33:54.554Z,14.79
2023-01-22T16:36:21.218Z,14.81
2023-01-22T16:38:47.895Z,14.84
2023-01-22T16:41:22.407Z,14.85
2023-01-22T16:43:50.871Z,14.86
2023-01-22T16:46:17.545Z,14.86
2023-01-22T16:48:44.248Z,14.88
2023-01-22T16:51:11.187Z,14.93
2023-01-22T16:53:37.902Z,14.91
2023-01-22T16:56:04.581Z,14.93
2023-01-22T16:58:31.253Z,14.95
2023-01-22T17:00:57.919Z,14.96
2023-01-22T17:03:24.627Z,14.99
2023-01-22T17:05:51.339Z,14.99
2023-01-22T17:08:18.018Z,15.02
2023-01-22T17:10:44.690Z,14.99
2023-01-22T17:13:11.386Z,15.02
2023-01-22T17:15:38.051Z,15.02
2023-01-22T17:18:04.724Z,15.00
2023-01-22T17:20:31.393Z,15.05
2023-01-22T17:22:58.042Z,15.06
2023-01-22T17:25:24.706Z,15.06
2023-01-22T17:27:51.373Z,15.06
2023-01-22T17:30:18.330Z,15.09
2023-01-22T17:32:46.538Z,15.07
2023-01-22T17:35:14.284Z,15.10
2023-01-22T17:37:40.976Z,15.09
2023-01-22T17:40:07.645Z,15.09
2023-01-22T17:42:34.312Z,15.07
2023-01-22T17:45:01.195Z,15.09
2023-01-22T17:47:27.865Z,15.09
2023-01-22T17:49:54.747Z,15.12
2023-01-22T17:52:21.414Z,15.10
2023-01-22T17:54:48.090Z,15.10
2023-01-22T17:57:14.987Z,15.07
2023-01-22T17:59:41.672Z,15.10
2023-01-22T18:02:08.334Z,15.12
2023-01-22T18:04:35.020Z,15.10
2023-01-22T18:07:01.696Z,15.09
2023-01-22T18:09:28.368Z,15.09
2023-01-22T18:11:55.264Z,15.12
2023-01-22T18:14:21.999Z,15.12
2023-01-22T18:16:49.360Z,15.10
2023-01-22T18:19:16.015Z,15.09
2023-01-22T18:21:42.682Z,15.07
2023-01-22T18:24:09.544Z,15.07
2023-01-22T18:26:36.224Z,15.06
2023-01-22T18:29:02.908Z,15.06
2023-01-22T18:31:29.678Z,15.05
2023-01-22T18:33:56.437Z,15.07
2023-01-22T18:36:23.077Z,15.05
2023-01-22T18:38:49.748Z,15.06
2023-01-22T18:41:16.616Z,15.06
2023-01-22T18:43:43.298Z,15.02
2023-01-22T18:46:09.999Z,15.02
2023-01-22T18:48:36.687Z,15.00
2023-01-22T18:51:03.394Z,14.98
2023-01-22T18:53:30.069Z,14.99
2023-01-22T18:55:58.374Z,14.99
2023-01-22T18:58:25.112Z,14.99
2023-01-22T19:00:51.785Z,14.98
2023-01-22T19:03:18.459Z,14.95
2023-01-22T19:05:45.899Z,14.93
2023-01-22T19:08:12.559Z,14.95
2023-01-22T19:10:39.215Z,14.93
2023-01-22T19:13:05.901Z,14.92
2023-01-22T19:15:32.554Z,14.89
2023-01-22T19:17:59.224Z,14.88
2023-01-22T19:20:26.108Z,14.88
2023-01-22T19:22:52.770Z,14.86
2023-01-22T19:25:19.766Z,14.84
2023-01-22T19:27:46.579Z,14.81
2023-01-22T19:30:13.272Z,14.81
2023-01-22T19:32:39.942Z,14.82
2023-01-22T19:35:06.625Z,14.82
2023-01-22T19:37:33.302Z,14.74
2023-01-22T19:40:00.183Z,14.74
2023-01-22T19:42:26.848Z,14.74
2023-01-22T19:44:53.500Z,14.72
2023-01-22T19:47:20.189Z,14.74
2023-01-22T19:49:46.893Z,14.68
2023-01-22T19:52:13.762Z,14.69
2023-01-22T19:54:40.436Z,14.67
2023-01-22T19:57:07.101Z,14.65
2023-01-22T19:59:33.758Z,14.62
2023-01-22T20:02:00.621Z,14.62
2023-01-22T20:04:27.304Z,14.60
2023-01-22T20:06:53.947Z,14.57
2023-01-22T20:09:20.592Z,14.57
2023-01-22T20:11:47.466Z,14.58
2023-01-22T20:14:14.350Z,14.54
2023-01-22T20:16:40.999Z,14.51
2023-01-22T20:19:07.650Z,14.49
2023-01-22T20:21:34.330Z,14.46
2023-01-22T20:24:01.092Z,14.48
2023-01-22T20:26:27.981Z,14.45
2023-01-22T20:28:54.684Z,14.42
2023-01-22T20:31:21.843Z,14.44
2023-01-22T20:33:48.555Z,14.42
2023-01-22T20:36:15.316Z,14.40
2023-01-22T20:38:42.065Z,14.40
2023-01-22T20:41:08.745Z,14.37
2023-01-22T20:43:35.395Z,14.34
2023-01-22T20:46:02.117Z,14.31
2023-01-22T20:48:28.816Z,14.31
2023-01-22T20:50:55.486Z,14.30
2023-01-22T20:53:22.174Z,14.28
2023-01-22T20:55:48.845Z,14.25
2023-01-22T20:58:15.535Z,14.24
2023-01-22T21:00:42.249Z,14.24
2023-01-22T21:03:08.930Z,14.21
2023-01-22T21:05:35.584Z,14.18
2023-01-22T21:08:02.321Z,14.16
2023-01-22T21:10:29.026Z,14.16
2023-01-22T21:12:55.695Z,14.12
2023-01-22T21:15:22.372Z,14.09
2023-01-22T21:17:49.268Z,14.09
2023-01-22T21:20:15.946Z,14.07
2023-01-22T21:22:42.632Z,14.04
2023-01-22T21:25:09.316Z,14.03
2023-01-22T21:27:36.222Z,14.00
2023-01-22T21:30:03.132Z,14.00
2023-01-22T21:32:29.782Z,13.99
2023-01-22T21:34:56.429Z,13.94
2023-01-22T21:37:23.124Z,13.91
2023-01-22T21:39:49.799Z,13.89
2023-01-22T21:42:16.477Z,13.90
2023-01-22T21:44:43.444Z,13.87
2023-01-22T21:47:10.103Z,13.86
2023-01-22T21:49:36.991Z,13.84
2023-01-22T21:52:03.655Z,13.82
2023-01-22T21:54:30.555Z,13.82
2023-01-22T21:56:57.248Z,13.76
2023-01-22T21:59:23.917Z,13.76
2023-01-22T22:01:50.614Z,13.73
2023-01-22T22:04:17.309Z,13.70
2023-01-22T22:06:44.398Z,13.73
2023-01-22T22:09:11.068Z,13.69
2023-01-22T22:11:37.958Z,13.69
2023-01-22T22:14:04.649Z,13.67
2023-01-22T22:16:31.344Z,13.65
2023-01-22T22:18:58.018Z,13.63
2023-01-22T22:21:24.659Z,13.59
2023-01-22T22:23:51.316Z,13.59
2023-01-22T22:26:18.008Z,13.53
2023-01-22T22:28:44.859Z,13.53
2023-01-22T22:31:11.523Z,13.52
2023-01-22T22:33:38.191Z,13.51
2023-01-22T22:36:04.856Z,13.48
2023-01-22T22:38:31.518Z,13.45
2023-01-22T22:40:58.419Z,13.45
2023-01-22T22:43:25.810Z,13.41
2023-01-22T22:45:52.734Z,13.41
2023-01-22T22:48:19.419Z,13.38
2023-01-22T22:50:46.089Z,13.38
2023-01-22T22:53:12.763Z,13.32
2023-01-22T22:55:39.438Z,13.32
2023-01-22T22:58:06.949Z,13.29
2023-01-22T23:00:35.024Z,13.26
2023-01-22T23:03:01.709Z,13.26
2023-01-22T23:05:28.660Z,13.25
2023-01-22T23:07:55.328Z,13.23
2023-01-22T23:10:22.002Z,13.21
2023-01-22T23:12:48.681Z,13.18
2023-01-22T23:15:15.361Z,13.16
2023-01-22T23:17:42.230Z,13.15
2023-01-22T23:20:08.894Z,13.14
2023-01-22T23:22:35.598Z,13.11
2023-01-22T23:25:02.275Z,13.11
2023-01-22T23:27:28.971Z,13.08
2023-01-22T23:29:55.675Z,13.05
2023-01-22T23:32:22.358Z,13.05
2023-01-22T23:34:49.040Z,13.05
2023-01-22T23:37:15.725Z,13.02
2023-01-22T23:39:42.410Z,13.01
2023-01-22T23:42:09.100Z,13.00
2023-01-22T23:44:35.957Z,12.95
2023-01-22T23:47:02.816Z,12.97
2023-01-22T23:49:29.513Z,12.94
2023-01-22T23:51:56.196Z,12.91
2023-01-22T23:54:22.847Z,12.90
2023-01-22T23:56:49.491Z,12.87
2023-01-22T23:59:16.153Z,12.84
